createdAt,value
2022-12-04T00:01:16.583Z,57.54
2022-12-04T00:03:44.444Z,57.56
2022-12-04T00:06:14.349Z,57.78
2022-12-04T00:08:42.577Z,57.24
2022-12-04T00:11:11.914Z,57.75
2022-12-04T00:13:40.063Z,57.56
2022-12-04T00:16:12.062Z,57.51
2022-12-04T00:18:39.812Z,57.70
2022-12-04T00:21:08.819Z,57.63
2022-12-04T00:23:37.981Z,57.73
2022-12-04T00:26:10.820Z,57.59
2022-12-04T00:28:38.833Z,57.49
2022-12-04T00:31:07.902Z,57.84
2022-12-04T00:33:37.549Z,57.71
2022-12-04T00:36:07.478Z,57.49
2022-12-04T00:38:35.587Z,57.83
2022-12-04T00:41:03.297Z,57.74
2022-12-04T00:43:32.156Z,57.52
2022-12-04T00:45:59.890Z,58.24
2022-12-04T00:48:28.032Z,57.95
2022-12-04T00:50:59.014Z,58.21
2022-12-04T00:53:26.700Z,57.83
2022-12-04T00:55:54.362Z,57.67
2022-12-04T00:58:22.044Z,57.74
2022-12-04T01:00:49.768Z,57.85
2022-12-04T01:03:17.591Z,57.68
2022-12-04T01:05:46.735Z,57.77
2022-12-04T01:08:15.804Z,57.75
2022-12-04T01:10:43.533Z,57.57
2022-12-04T01:13:11.421Z,57.75
2022-12-04T01:15:40.371Z,57.74
2022-12-04T01:18:08.517Z,57.88
2022-12-04T01:20:36.205Z,57.71
2022-12-04T01:23:04.363Z,57.93
2022-12-04T01:25:33.715Z,58.06
2022-12-04T01:28:01.436Z,57.82
2022-12-04T01:30:29.577Z,57.70
2022-12-04T01:32:57.247Z,57.66
2022-12-04T01:35:24.917Z,58.02
2022-12-04T01:37:52.584Z,57.97
2022-12-04T01:40:21.131Z,57.92
2022-12-04T01:42:50.134Z,57.94
2022-12-04T01:45:39.632Z,58.08
2022-12-04T01:48:13.885Z,57.75
2022-12-04T01:50:42.570Z,57.73
2022-12-04T01:53:10.375Z,57.90
2022-12-04T01:55:38.344Z,57.76
2022-12-04T01:58:08.474Z,58.18
2022-12-04T02:00:36.277Z,57.89
2022-12-04T02:03:04.099Z,57.64
2022-12-04T02:05:31.766Z,58.17
2022-12-04T02:08:03.160Z,57.89
2022-12-04T02:10:41.189Z,58.31
2022-12-04T02:13:17.925Z,57.90
2022-12-04T02:15:52.754Z,58.25
2022-12-04T02:18:30.439Z,58.20
2022-12-04T02:21:06.921Z,57.64
2022-12-04T02:23:56.946Z,57.83
2022-12-04T02:26:40.979Z,57.86
2022-12-04T02:29:17.877Z,57.87
2022-12-04T02:31:52.501Z,58.33
2022-12-04T02:34:27.431Z,58.18
2022-12-04T02:37:00.925Z,57.99
2022-12-04T02:39:36.426Z,58.22
2022-12-04T02:42:09.116Z,57.81
2022-12-04T02:44:42.585Z,57.91
2022-12-04T02:47:13.637Z,58.15
2022-12-04T02:49:46.120Z,57.72
2022-12-04T02:52:19.398Z,57.67
2022-12-04T02:54:51.544Z,57.92
2022-12-04T02:57:23.234Z,57.82
2022-12-04T02:59:55.006Z,58.00
2022-12-04T03:02:29.443Z,58.18
2022-12-04T03:05:01.947Z,57.92
2022-12-04T03:07:36.327Z,58.15
2022-12-04T03:10:10.956Z,57.91
2022-12-04T03:12:43.630Z,57.80
2022-12-04T03:15:19.161Z,57.82
2022-12-04T03:17:53.545Z,58.05
2022-12-04T03:20:23.021Z,58.00
2022-12-04T03:22:55.570Z,58.38
2022-12-04T03:25:36.247Z,58.20
2022-12-04T03:28:08.405Z,57.87
2022-12-04T03:30:45.303Z,57.75
2022-12-04T03:33:16.274Z,58.24
2022-12-04T03:35:48.655Z,58.13
2022-12-04T03:38:21.526Z,58.28
2022-12-04T03:40:55.569Z,58.28
2022-12-04T03:43:29.105Z,58.42
2022-12-04T03:46:04.387Z,57.77
2022-12-04T03:48:39.869Z,58.41
2022-12-04T03:51:19.370Z,58.05
2022-12-04T03:53:52.502Z,57.82
2022-12-04T03:56:23.978Z,57.98
2022-12-04T03:58:56.815Z,58.22
2022-12-04T04:01:34.047Z,58.10
2022-12-04T04:04:05.166Z,57.98
2022-12-04T04:06:39.990Z,58.51
2022-12-04T04:09:15.485Z,57.95
2022-12-04T04:11:48.493Z,58.07
2022-12-04T04:14:39.917Z,57.79
2022-12-04T04:17:37.943Z,57.99
2022-12-04T04:20:27.681Z,58.36
2022-12-04T04:23:17.138Z,58.44
2022-12-04T04:25:46.642Z,58.12
2022-12-04T04:28:34.967Z,58.40
2022-12-04T04:31:11.175Z,58.34
2022-12-04T04:33:49.365Z,58.16
2022-12-04T04:36:24.442Z,58.48
2022-12-04T04:39:01.839Z,58.51
2022-12-04T04:41:37.408Z,58.20
2022-12-04T04:44:16.476Z,58.10
2022-12-04T04:46:49.020Z,58.46
2022-12-04T04:49:19.522Z,58.23
2022-12-04T04:51:48.246Z,58.39
2022-12-04T04:54:17.842Z,57.84
2022-12-04T04:56:47.331Z,58.48
2022-12-04T04:59:16.027Z,58.60
2022-12-04T05:01:46.885Z,58.66
2022-12-04T05:04:14.838Z,58.64
2022-12-04T05:06:43.866Z,58.17
2022-12-04T05:09:11.590Z,58.17
2022-12-04T05:11:39.304Z,58.44
2022-12-04T05:14:07.025Z,58.31
2022-12-04T05:16:34.759Z,58.74
2022-12-04T05:19:20.310Z,58.50
2022-12-04T05:21:49.332Z,58.46
2022-12-04T05:24:16.968Z,58.48
2022-12-04T05:26:44.775Z,58.54
2022-12-04T05:29:12.465Z,58.98
2022-12-04T05:31:40.194Z,58.47
2022-12-04T05:34:07.917Z,58.59
2022-12-04T05:36:35.554Z,58.76
2022-12-04T05:39:04.751Z,58.89
2022-12-04T05:41:32.437Z,58.18
2022-12-04T05:44:00.120Z,58.46
2022-12-04T05:46:27.823Z,58.40
2022-12-04T05:48:55.551Z,58.74
2022-12-04T05:51:23.191Z,58.89
2022-12-04T05:53:53.002Z,58.65
2022-12-04T05:56:22.496Z,58.84
2022-12-04T05:58:50.157Z,58.66
2022-12-04T06:01:20.344Z,58.32
2022-12-04T06:03:48.002Z,58.70
2022-12-04T06:06:21.433Z,58.75
2022-12-04T06:08:50.647Z,57.68
2022-12-04T06:11:20.974Z,57.31
2022-12-04T06:13:50.212Z,56.86
2022-12-04T06:16:20.324Z,56.34
2022-12-04T06:18:51.567Z,55.75
2022-12-04T06:21:20.623Z,55.57
2022-12-04T06:23:48.728Z,55.34
2022-12-04T06:26:16.649Z,54.41
2022-12-04T06:28:44.532Z,54.56
2022-12-04T06:31:15.901Z,53.89
2022-12-04T06:33:43.705Z,53.59
2022-12-04T06:36:13.377Z,53.80
2022-12-04T06:38:41.565Z,53.80
2022-12-04T06:41:11.049Z,54.52
2022-12-04T06:43:38.896Z,55.19
2022-12-04T06:46:08.552Z,55.62
2022-12-04T06:48:38.261Z,56.27
2022-12-04T06:51:08.270Z,56.19
2022-12-04T06:53:36.477Z,56.42
2022-12-04T06:56:18.077Z,57.01
2022-12-04T06:58:46.005Z,56.81
2022-12-04T07:01:16.138Z,56.94
2022-12-04T07:03:51.040Z,57.16
2022-12-04T07:06:22.008Z,57.09
2022-12-04T07:08:52.791Z,57.43
2022-12-04T07:11:22.055Z,58.02
2022-12-04T07:13:50.098Z,57.56
2022-12-04T07:16:20.740Z,57.83
2022-12-04T07:18:53.285Z,58.02
2022-12-04T07:21:23.041Z,58.25
2022-12-04T07:23:51.720Z,58.20
2022-12-04T07:26:19.945Z,58.11
2022-12-04T07:28:48.101Z,58.29
2022-12-04T07:31:17.928Z,58.51
2022-12-04T07:33:46.665Z,58.23
2022-12-04T07:36:19.350Z,58.48
2022-12-04T07:38:47.961Z,57.74
2022-12-04T07:41:16.682Z,57.51
2022-12-04T07:43:44.665Z,56.94
2022-12-04T07:46:14.613Z,56.63
2022-12-04T07:48:42.413Z,55.83
2022-12-04T07:51:12.252Z,55.78
2022-12-04T07:53:42.021Z,55.39
2022-12-04T07:56:11.959Z,55.25
2022-12-04T07:58:40.153Z,55.63
2022-12-04T08:01:10.025Z,56.20
2022-12-04T08:03:42.114Z,56.57
2022-12-04T08:06:13.817Z,56.81
2022-12-04T08:08:42.887Z,56.67
2022-12-04T08:11:12.633Z,57.31
2022-12-04T08:13:40.387Z,57.51
2022-12-04T08:16:10.941Z,57.78
2022-12-04T08:18:39.964Z,57.82
2022-12-04T08:21:10.192Z,58.17
2022-12-04T08:23:41.375Z,57.78
2022-12-04T08:26:11.095Z,57.95
2022-12-04T08:28:38.846Z,58.11
2022-12-04T08:31:08.655Z,58.75
2022-12-04T08:33:36.651Z,58.29
2022-12-04T08:36:07.552Z,58.19
2022-12-04T08:38:35.671Z,58.02
2022-12-04T08:41:04.327Z,58.28
2022-12-04T08:43:33.857Z,58.29
2022-12-04T08:46:03.897Z,58.45
2022-12-04T08:48:32.372Z,58.05
2022-12-04T08:51:00.448Z,58.45
2022-12-04T08:53:28.451Z,58.07
2022-12-04T08:55:56.093Z,58.00
2022-12-04T08:58:24.464Z,58.21
2022-12-04T09:00:53.500Z,58.43
2022-12-04T09:03:26.210Z,58.37
2022-12-04T09:06:00.182Z,58.87
2022-12-04T09:08:28.041Z,58.42
2022-12-04T09:10:55.785Z,58.67
2022-12-04T09:13:23.481Z,58.49
2022-12-04T09:15:51.133Z,58.48
2022-12-04T09:18:20.169Z,58.50
2022-12-04T09:20:56.528Z,58.19
2022-12-04T09:23:24.200Z,58.25
2022-12-04T09:25:52.234Z,58.45
2022-12-04T09:28:20.446Z,58.19
2022-12-04T09:30:57.556Z,57.63
2022-12-04T09:33:26.876Z,57.51
2022-12-04T09:35:54.605Z,57.68
2022-12-04T09:38:22.339Z,57.25
2022-12-04T09:40:59.091Z,57.43
2022-12-04T09:43:33.314Z,57.56
2022-12-04T09:46:08.820Z,57.87
2022-12-04T09:48:42.959Z,57.18
2022-12-04T09:51:18.717Z,56.84
2022-12-04T09:53:49.834Z,56.35
2022-12-04T09:56:20.763Z,56.01
2022-12-04T09:58:51.904Z,55.26
2022-12-04T10:01:24.607Z,54.56
2022-12-04T10:03:56.926Z,54.82
2022-12-04T10:06:33.262Z,53.93
2022-12-04T10:09:04.915Z,53.57
2022-12-04T10:11:45.586Z,53.69
2022-12-04T10:14:38.825Z,53.47
2022-12-04T10:17:32.242Z,53.69
2022-12-04T10:20:12.771Z,54.62
2022-12-04T10:22:54.655Z,55.09
2022-12-04T10:25:23.432Z,55.72
2022-12-04T10:27:56.944Z,55.83
2022-12-04T10:30:27.026Z,56.29
2022-12-04T10:32:59.145Z,56.57
2022-12-04T10:35:30.997Z,56.39
2022-12-04T10:38:04.133Z,55.55
2022-12-04T10:40:36.775Z,55.76
2022-12-04T10:43:13.141Z,55.31
2022-12-04T10:45:40.917Z,54.88
2022-12-04T10:48:13.309Z,54.54
2022-12-04T10:50:42.390Z,54.75
2022-12-04T10:53:14.091Z,54.03
2022-12-04T10:55:42.242Z,54.67
2022-12-04T10:58:16.817Z,55.44
2022-12-04T11:00:46.795Z,55.94
2022-12-04T11:03:25.752Z,56.60
2022-12-04T11:05:59.362Z,56.33
2022-12-04T11:08:32.049Z,56.67
2022-12-04T11:11:02.365Z,56.67
2022-12-04T11:13:30.320Z,56.95
2022-12-04T11:15:59.297Z,56.81
2022-12-04T11:18:28.641Z,56.99
2022-12-04T11:21:00.512Z,56.70
2022-12-04T11:23:33.142Z,56.68
2022-12-04T11:26:05.828Z,56.96
2022-12-04T11:28:43.321Z,57.10
2022-12-04T11:31:12.034Z,57.05
2022-12-04T11:33:45.883Z,57.28
2022-12-04T11:36:23.148Z,57.11
2022-12-04T11:38:52.739Z,56.52
2022-12-04T11:41:28.655Z,56.02
2022-12-04T11:44:00.223Z,55.83
2022-12-04T11:46:30.490Z,55.47
2022-12-04T11:48:59.143Z,54.75
2022-12-04T11:51:44.780Z,54.11
2022-12-04T11:54:23.155Z,53.72
2022-12-04T11:57:03.005Z,53.38
2022-12-04T11:59:44.032Z,52.81
2022-12-04T12:02:32.133Z,52.98
2022-12-04T12:05:32.817Z,52.58
2022-12-04T12:08:13.862Z,52.47
2022-12-04T12:10:49.286Z,52.65
2022-12-04T12:13:27.272Z,51.95
2022-12-04T12:16:05.868Z,52.30
2022-12-04T12:18:53.557Z,51.85
2022-12-04T12:21:26.281Z,51.57
2022-12-04T12:24:10.609Z,52.08
2022-12-04T12:26:47.057Z,52.00
2022-12-04T12:29:31.386Z,52.11
2022-12-04T12:32:11.222Z,52.42
2022-12-04T12:34:41.179Z,52.75
2022-12-04T12:37:23.109Z,53.41
2022-12-04T12:40:01.015Z,54.27
2022-12-04T12:42:34.694Z,54.43
2022-12-04T12:45:07.439Z,54.49
2022-12-04T12:47:42.068Z,54.61
2022-12-04T12:50:17.479Z,54.88
2022-12-04T12:52:51.687Z,55.31
2022-12-04T12:55:25.074Z,55.40
2022-12-04T12:58:01.043Z,55.57
2022-12-04T13:00:33.068Z,55.65
2022-12-04T13:03:04.921Z,55.32
2022-12-04T13:05:38.566Z,54.64
2022-12-04T13:08:18.822Z,54.41
2022-12-04T13:10:54.740Z,53.81
2022-12-04T13:13:27.541Z,53.50
2022-12-04T13:15:58.566Z,53.14
2022-12-04T13:18:29.814Z,52.58
2022-12-04T13:21:00.636Z,52.61
2022-12-04T13:23:45.836Z,53.15
2022-12-04T13:26:28.221Z,53.37
2022-12-04T13:29:04.104Z,53.72
2022-12-04T13:31:39.189Z,54.43
2022-12-04T13:34:24.797Z,54.33
2022-12-04T13:37:03.805Z,54.72
2022-12-04T13:40:15.828Z,54.73
2022-12-04T13:42:45.308Z,54.67
2022-12-04T13:45:25.851Z,54.74
2022-12-04T13:47:58.508Z,54.21
2022-12-04T13:50:31.877Z,54.04
2022-12-04T13:53:00.748Z,53.71
2022-12-04T13:55:32.109Z,53.01
2022-12-04T13:58:03.527Z,52.90
2022-12-04T14:00:33.900Z,52.90
2022-12-04T14:03:05.667Z,52.83
2022-12-04T14:05:41.113Z,52.91
2022-12-04T14:08:24.947Z,53.69
2022-12-04T14:11:01.973Z,53.52
2022-12-04T14:13:45.406Z,54.20
2022-12-04T14:16:23.424Z,54.40
2022-12-04T14:18:54.107Z,54.29
2022-12-04T14:21:22.177Z,54.81
2022-12-04T14:23:50.740Z,54.38
2022-12-04T14:26:48.797Z,54.71
2022-12-04T14:29:35.562Z,54.91
2022-12-04T14:32:10.761Z,54.91
2022-12-04T14:34:39.021Z,55.02
2022-12-04T14:37:07.774Z,55.39
2022-12-04T14:39:40.894Z,55.33
2022-12-04T14:42:15.578Z,55.12
2022-12-04T14:44:47.192Z,55.48
2022-12-04T14:47:27.003Z,55.30
2022-12-04T14:50:10.313Z,55.17
2022-12-04T14:52:43.958Z,55.32
2022-12-04T14:55:23.640Z,55.44
2022-12-04T14:57:56.585Z,55.67
2022-12-04T15:00:26.938Z,55.79
2022-12-04T15:02:57.642Z,56.02
2022-12-04T15:05:28.252Z,56.07
2022-12-04T15:08:00.219Z,55.89
2022-12-04T15:10:47.404Z,56.22
2022-12-04T15:13:26.717Z,56.28
2022-12-04T15:15:55.992Z,56.47
2022-12-04T15:18:23.964Z,56.16
2022-12-04T15:20:57.773Z,56.74
2022-12-04T15:23:30.145Z,56.80
2022-12-04T15:25:59.970Z,56.27
2022-12-04T15:28:32.922Z,56.51
2022-12-04T15:31:06.168Z,56.49
2022-12-04T15:33:38.940Z,56.72
2022-12-04T15:36:10.575Z,56.73
2022-12-04T15:38:38.526Z,56.43
2022-12-04T15:41:06.403Z,56.90
2022-12-04T15:43:41.019Z,57.24
2022-12-04T15:46:16.095Z,57.29
2022-12-04T15:48:47.665Z,57.01
2022-12-04T15:51:17.228Z,57.20
2022-12-04T15:53:47.063Z,57.81
2022-12-04T15:56:19.785Z,57.37
2022-12-04T15:58:55.850Z,57.48
2022-12-04T16:01:25.470Z,57.45
2022-12-04T16:03:55.564Z,57.38
2022-12-04T16:06:25.756Z,57.47
2022-12-04T16:08:55.410Z,57.54
2022-12-04T16:11:32.441Z,57.43
2022-12-04T16:14:05.036Z,57.20
2022-12-04T16:16:34.162Z,57.46
2022-12-04T16:19:03.250Z,57.65
2022-12-04T16:21:32.757Z,57.34
2022-12-04T16:24:03.296Z,58.04
2022-12-04T16:26:30.993Z,58.10
2022-12-04T16:28:59.273Z,58.00
2022-12-04T16:31:27.788Z,58.00
2022-12-04T16:33:56.941Z,57.86
2022-12-04T16:36:24.631Z,57.31
2022-12-04T16:38:52.277Z,56.76
2022-12-04T16:41:21.207Z,56.29
2022-12-04T16:43:54.241Z,56.10
2022-12-04T16:46:24.491Z,55.44
2022-12-04T16:48:52.228Z,54.92
2022-12-04T16:51:24.126Z,54.61
2022-12-04T16:53:53.111Z,53.77
2022-12-04T16:56:24.356Z,54.04
2022-12-04T16:58:52.086Z,53.20
2022-12-04T17:01:23.519Z,53.75
2022-12-04T17:03:51.404Z,53.40
2022-12-04T17:06:19.838Z,53.45
2022-12-04T17:08:48.933Z,53.03
2022-12-04T17:11:18.266Z,52.64
2022-12-04T17:13:46.536Z,53.18
2022-12-04T17:16:18.471Z,52.79
2022-12-04T17:18:47.534Z,52.66
2022-12-04T17:21:15.587Z,52.96
2022-12-04T17:23:43.935Z,53.71
2022-12-04T17:26:16.063Z,53.26
2022-12-04T17:28:44.656Z,53.97
2022-12-04T17:31:15.513Z,54.07
2022-12-04T17:33:44.066Z,54.95
2022-12-04T17:36:13.348Z,54.72
2022-12-04T17:38:41.776Z,55.12
2022-12-04T17:41:13.664Z,55.67
2022-12-04T17:43:43.694Z,55.42
2022-12-04T17:46:12.469Z,56.28
2022-12-04T17:48:40.592Z,56.00
2022-12-04T17:51:10.384Z,55.79
2022-12-04T17:53:39.304Z,56.24
2022-12-04T17:56:09.165Z,55.82
2022-12-04T17:58:37.766Z,55.72
2022-12-04T18:01:09.535Z,55.58
2022-12-04T18:03:38.603Z,55.04
2022-12-04T18:06:13.822Z,54.74
2022-12-04T18:08:45.297Z,54.07
2022-12-04T18:11:18.719Z,53.36
2022-12-04T18:13:46.462Z,52.82
2022-12-04T18:16:15.598Z,53.46
2022-12-04T18:18:46.621Z,53.56
2022-12-04T18:21:15.457Z,53.91
2022-12-04T18:23:45.179Z,54.16
2022-12-04T18:26:14.247Z,54.89
2022-12-04T18:28:42.346Z,54.91
2022-12-04T18:31:11.076Z,55.28
2022-12-04T18:33:42.200Z,55.29
2022-12-04T18:36:14.420Z,55.08
2022-12-04T18:38:42.152Z,55.46
2022-12-04T18:41:12.423Z,55.08
2022-12-04T18:43:41.873Z,55.69
2022-12-04T18:46:13.342Z,55.53
2022-12-04T18:48:43.384Z,55.32
2022-12-04T18:51:20.364Z,55.14
2022-12-04T18:53:48.092Z,55.31
2022-12-04T18:56:16.258Z,54.91
2022-12-04T18:58:44.621Z,54.57
2022-12-04T19:01:14.831Z,53.58
2022-12-04T19:03:43.962Z,53.51
2022-12-04T19:06:12.278Z,52.99
2022-12-04T19:08:43.873Z,53.21
2022-12-04T19:11:13.446Z,53.30
2022-12-04T19:13:41.786Z,53.80
2022-12-04T19:16:13.055Z,54.87
2022-12-04T19:18:42.107Z,54.70
2022-12-04T19:21:11.197Z,54.92
2022-12-04T19:23:38.865Z,55.12
2022-12-04T19:26:06.895Z,55.57
2022-12-04T19:28:34.646Z,55.85
2022-12-04T19:31:02.380Z,55.53
2022-12-04T19:33:30.376Z,55.89
2022-12-04T19:36:00.043Z,56.36
2022-12-04T19:38:29.978Z,56.20
2022-12-04T19:41:06.326Z,56.63
2022-12-04T19:43:34.102Z,56.54
2022-12-04T19:46:02.508Z,56.47
2022-12-04T19:48:30.249Z,57.04
2022-12-04T19:51:03.463Z,57.02
2022-12-04T19:53:37.667Z,57.07
2022-12-04T19:56:10.880Z,57.12
2022-12-04T19:58:39.014Z,56.71
2022-12-04T20:01:08.643Z,57.49
2022-12-04T20:03:37.143Z,57.62
2022-12-04T20:06:05.694Z,57.60
2022-12-04T20:08:35.258Z,57.71
2022-12-04T20:11:04.214Z,57.77
2022-12-04T20:13:32.025Z,57.55
2022-12-04T20:16:02.614Z,57.99
2022-12-04T20:18:30.366Z,57.79
2022-12-04T20:20:59.881Z,57.32
2022-12-04T20:23:28.022Z,57.69
2022-12-04T20:25:57.037Z,57.90
2022-12-04T20:28:24.769Z,57.75
2022-12-04T20:30:52.586Z,58.24
2022-12-04T20:33:20.298Z,57.92
2022-12-04T20:35:48.215Z,58.33
2022-12-04T20:38:15.949Z,57.89
2022-12-04T20:40:43.671Z,58.32
2022-12-04T20:43:12.703Z,58.05
2022-12-04T20:45:40.450Z,58.14
2022-12-04T20:48:08.210Z,58.36
2022-12-04T20:50:35.965Z,58.07
2022-12-04T20:53:03.678Z,58.25
2022-12-04T20:55:31.395Z,58.22
2022-12-04T20:57:59.104Z,58.30
2022-12-04T21:00:28.593Z,58.50
2022-12-04T21:02:56.369Z,58.37
2022-12-04T21:05:24.269Z,58.40
2022-12-04T21:07:51.981Z,58.56
2022-12-04T21:10:19.713Z,58.24
2022-12-04T21:13:05.149Z,58.50
2022-12-04T21:15:51.824Z,58.12
2022-12-04T21:18:19.522Z,58.56
2022-12-04T21:20:47.202Z,58.41
2022-12-04T21:23:14.924Z,58.65
2022-12-04T21:25:42.646Z,58.45
2022-12-04T21:28:10.386Z,58.64
2022-12-04T21:30:39.397Z,58.48
2022-12-04T21:33:07.020Z,58.80
2022-12-04T21:35:34.744Z,58.70
2022-12-04T21:38:02.422Z,58.88
2022-12-04T21:40:30.119Z,58.41
2022-12-04T21:42:57.806Z,58.96
2022-12-04T21:45:25.489Z,58.96
2022-12-04T21:47:54.498Z,58.70
2022-12-04T21:50:22.228Z,58.87
2022-12-04T21:52:49.895Z,58.87
2022-12-04T21:55:17.806Z,58.98
2022-12-04T21:57:45.473Z,58.90
2022-12-04T22:00:14.681Z,59.08
2022-12-04T22:02:42.428Z,58.96
2022-12-04T22:05:11.598Z,59.11
2022-12-04T22:07:39.379Z,58.99
2022-12-04T22:10:10.847Z,59.30
2022-12-04T22:12:49.580Z,59.18
2022-12-04T22:15:18.379Z,59.39
2022-12-04T22:17:46.047Z,59.45
2022-12-04T22:20:16.471Z,59.59
2022-12-04T22:22:44.105Z,59.91
2022-12-04T22:25:11.744Z,59.85
2022-12-04T22:27:39.432Z,59.81
2022-12-04T22:30:08.585Z,59.82
2022-12-04T22:32:36.300Z,59.43
2022-12-04T22:35:04.029Z,59.99
2022-12-04T22:37:33.103Z,59.84
2022-12-04T22:40:00.814Z,59.80
2022-12-04T22:42:28.736Z,60.02
2022-12-04T22:44:56.458Z,60.14
2022-12-04T22:47:24.141Z,60.25
2022-12-04T22:49:51.930Z,60.11
2022-12-04T22:52:19.976Z,60.05
2022-12-04T22:54:51.117Z,60.33
2022-12-04T22:57:18.961Z,60.52
2022-12-04T22:59:46.814Z,60.42
2022-12-04T23:02:14.593Z,60.21
2022-12-04T23:04:43.585Z,60.50
2022-12-04T23:07:11.312Z,60.24
2022-12-04T23:09:39.379Z,60.16
2022-12-04T23:12:08.649Z,60.19
2022-12-04T23:14:36.920Z,60.25
2022-12-04T23:17:04.985Z,60.48
2022-12-04T23:19:32.700Z,60.58
2022-12-04T23:22:00.588Z,60.41
2022-12-04T23:24:28.333Z,60.64
2022-12-04T23:26:55.976Z,60.32
2022-12-04T23:32:12.674Z,60.33
2022-12-04T23:34:40.444Z,60.88
2022-12-04T23:37:08.155Z,60.44
2022-12-04T23:39:35.892Z,60.76
2022-12-04T23:42:03.579Z,60.66
2022-12-04T23:44:32.839Z,60.78
2022-12-04T23:47:00.610Z,60.88
2022-12-04T23:49:29.215Z,60.77
2022-12-04T23:51:56.871Z,60.84
2022-12-04T23:54:24.522Z,60.74
2022-12-04T23:56:52.201Z,60.81
2022-12-04T23:59:21.933Z,61.04
